sensor_id;sensor_type;location;lat;lon;timestamp;temperature;humidity
50570;DHT22;36525;49.398;7.614;2024-03-29T00:00:43;8.00;99.90
50570;DHT22;36525;49.398;7.614;2024-03-29T00:03:12;8.00;99.90
50570;DHT22;36525;49.398;7.614;2024-03-29T00:05:38;8.10;99.90
50570;DHT22;36525;49.398;7.614;2024-03-29T00:08:04;8.00;99.90
50570;DHT22;36525;49.398;7.614;2024-03-29T00:10:30;8.10;99.90
50570;DHT22;36525;49.398;7.614;2024-03-29T00:12:56;8.10;99.90
50570;DHT22;36525;49.398;7.614;2024-03-29T00:15:23;8.10;99.90
50570;DHT22;36525;49.398;7.614;2024-03-29T00:17:49;8.20;99.90
50570;DHT22;36525;49.398;7.614;2024-03-29T00:20:14;8.10;99.90
50570;DHT22;36525;49.398;7.614;2024-03-29T00:22:41;8.10;99.90
50570;DHT22;36525;49.398;7.614;2024-03-29T00:25:07;8.10;99.90
50570;DHT22;36525;49.398;7.614;2024-03-29T00:27:33;8.10;99.90
50570;DHT22;36525;49.398;7.614;2024-03-29T00:29:59;8.10;99.90
50570;DHT22;36525;49.398;7.614;2024-03-29T00:32:25;8.00;99.90
50570;DHT22;36525;49.398;7.614;2024-03-29T00:34:52;8.00;99.90
50570;DHT22;36525;49.398;7.614;2024-03-29T00:37:19;8.00;99.90
50570;DHT22;36525;49.398;7.614;2024-03-29T00:39:45;8.00;99.90
50570;DHT22;36525;49.398;7.614;2024-03-29T00:42:11;8.10;99.90
50570;DHT22;36525;49.398;7.614;2024-03-29T00:44:41;8.10;99.90
50570;DHT22;36525;49.398;7.614;2024-03-29T00:47:08;8.00;99.90
50570;DHT22;36525;49.398;7.614;2024-03-29T00:49:34;8.10;99.90
50570;DHT22;36525;49.398;7.614;2024-03-29T00:52:00;8.10;99.90
50570;DHT22;36525;49.398;7.614;2024-03-29T00:54:27;8.10;99.90
50570;DHT22;36525;49.398;7.614;2024-03-29T00:56:53;8.20;99.90
50570;DHT22;36525;49.398;7.614;2024-03-29T00:59:19;8.20;99.90
50570;DHT22;36525;49.398;7.614;2024-03-29T01:01:46;8.20;99.90
50570;DHT22;36525;49.398;7.614;2024-03-29T01:04:12;8.10;99.90
50570;DHT22;36525;49.398;7.614;2024-03-29T01:06:38;8.10;99.90
50570;DHT22;36525;49.398;7.614;2024-03-29T01:09:06;8.20;99.90
50570;DHT22;36525;49.398;7.614;2024-03-29T01:11:32;8.20;99.90
50570;DHT22;36525;49.398;7.614;2024-03-29T01:13:58;8.20;99.90
50570;DHT22;36525;49.398;7.614;2024-03-29T01:16:24;8.20;99.90
50570;DHT22;36525;49.398;7.614;2024-03-29T01:18:50;8.20;99.90
50570;DHT22;36525;49.398;7.614;2024-03-29T01:21:17;8.10;99.90
50570;DHT22;36525;49.398;7.614;2024-03-29T01:23:43;8.10;99.90
50570;DHT22;36525;49.398;7.614;2024-03-29T01:26:09;8.00;99.90
50570;DHT22;36525;49.398;7.614;2024-03-29T01:28:38;8.10;99.90
50570;DHT22;36525;49.398;7.614;2024-03-29T01:31:04;8.10;99.90
50570;DHT22;36525;49.398;7.614;2024-03-29T01:33:31;8.10;99.90
50570;DHT22;36525;49.398;7.614;2024-03-29T01:36:06;8.20;99.90
50570;DHT22;36525;49.398;7.614;2024-03-29T01:38:32;8.30;99.90
50570;DHT22;36525;49.398;7.614;2024-03-29T01:40:58;8.50;99.90
50570;DHT22;36525;49.398;7.614;2024-03-29T01:43:24;8.50;99.90
50570;DHT22;36525;49.398;7.614;2024-03-29T01:45:52;8.60;99.90
50570;DHT22;36525;49.398;7.614;2024-03-29T01:48:20;8.60;99.90
50570;DHT22;36525;49.398;7.614;2024-03-29T01:50:47;8.70;99.90
50570;DHT22;36525;49.398;7.614;2024-03-29T01:53:13;8.70;99.90
50570;DHT22;36525;49.398;7.614;2024-03-29T01:55:40;8.70;99.90
50570;DHT22;36525;49.398;7.614;2024-03-29T01:58:07;8.60;99.90
50570;DHT22;36525;49.398;7.614;2024-03-29T02:00:33;8.70;99.90
50570;DHT22;36525;49.398;7.614;2024-03-29T02:03:02;8.60;99.90
50570;DHT22;36525;49.398;7.614;2024-03-29T02:05:29;8.60;99.90
50570;DHT22;36525;49.398;7.614;2024-03-29T02:07:56;8.50;99.90
50570;DHT22;36525;49.398;7.614;2024-03-29T02:10:23;8.50;99.90
50570;DHT22;36525;49.398;7.614;2024-03-29T02:12:48;8.50;99.90
50570;DHT22;36525;49.398;7.614;2024-03-29T02:15:15;8.50;99.90
50570;DHT22;36525;49.398;7.614;2024-03-29T02:17:44;8.50;99.90
50570;DHT22;36525;49.398;7.614;2024-03-29T02:20:10;8.50;99.90
50570;DHT22;36525;49.398;7.614;2024-03-29T02:22:36;8.50;99.90
50570;DHT22;36525;49.398;7.614;2024-03-29T02:25:06;8.60;99.90
50570;DHT22;36525;49.398;7.614;2024-03-29T02:27:33;8.60;99.90
50570;DHT22;36525;49.398;7.614;2024-03-29T02:29:58;8.70;99.90
50570;DHT22;36525;49.398;7.614;2024-03-29T02:32:24;8.60;99.90
50570;DHT22;36525;49.398;7.614;2024-03-29T02:34:52;8.60;99.90
50570;DHT22;36525;49.398;7.614;2024-03-29T02:37:18;8.70;99.90
50570;DHT22;36525;49.398;7.614;2024-03-29T02:39:44;8.80;99.90
50570;DHT22;36525;49.398;7.614;2024-03-29T02:42:10;8.80;99.90
50570;DHT22;36525;49.398;7.614;2024-03-29T02:44:36;8.90;99.90
50570;DHT22;36525;49.398;7.614;2024-03-29T02:47:02;9.00;99.90
50570;DHT22;36525;49.398;7.614;2024-03-29T02:49:28;9.00;99.90
50570;DHT22;36525;49.398;7.614;2024-03-29T02:51:54;9.10;99.90
50570;DHT22;36525;49.398;7.614;2024-03-29T02:54:20;9.20;99.90
50570;DHT22;36525;49.398;7.614;2024-03-29T02:56:46;9.20;99.90
50570;DHT22;36525;49.398;7.614;2024-03-29T02:59:12;9.10;99.90
50570;DHT22;36525;49.398;7.614;2024-03-29T03:01:39;9.10;99.90
50570;DHT22;36525;49.398;7.614;2024-03-29T03:04:05;9.00;99.90
50570;DHT22;36525;49.398;7.614;2024-03-29T03:06:31;9.00;99.90
50570;DHT22;36525;49.398;7.614;2024-03-29T03:08:57;8.90;99.90
50570;DHT22;36525;49.398;7.614;2024-03-29T03:11:41;8.90;99.90
50570;DHT22;36525;49.398;7.614;2024-03-29T03:14:07;8.70;99.90
50570;DHT22;36525;49.398;7.614;2024-03-29T03:16:33;8.70;99.90
50570;DHT22;36525;49.398;7.614;2024-03-29T03:18:59;8.70;99.90
50570;DHT22;36525;49.398;7.614;2024-03-29T03:21:25;8.60;99.90
50570;DHT22;36525;49.398;7.614;2024-03-29T03:23:51;8.60;99.90
50570;DHT22;36525;49.398;7.614;2024-03-29T03:26:17;8.70;99.90
50570;DHT22;36525;49.398;7.614;2024-03-29T03:28:42;8.60;99.90
50570;DHT22;36525;49.398;7.614;2024-03-29T03:31:08;8.60;99.90
50570;DHT22;36525;49.398;7.614;2024-03-29T03:33:34;8.50;99.90
50570;DHT22;36525;49.398;7.614;2024-03-29T03:36:00;8.40;99.90
50570;DHT22;36525;49.398;7.614;2024-03-29T03:38:26;8.30;99.90
50570;DHT22;36525;49.398;7.614;2024-03-29T03:40:53;8.20;99.90
50570;DHT22;36525;49.398;7.614;2024-03-29T03:43:19;8.10;99.90
50570;DHT22;36525;49.398;7.614;2024-03-29T03:45:45;8.10;99.90
50570;DHT22;36525;49.398;7.614;2024-03-29T03:48:10;7.90;99.90
50570;DHT22;36525;49.398;7.614;2024-03-29T03:50:37;7.80;99.90
50570;DHT22;36525;49.398;7.614;2024-03-29T03:53:03;7.60;99.90
50570;DHT22;36525;49.398;7.614;2024-03-29T03:55:29;7.60;99.90
50570;DHT22;36525;49.398;7.614;2024-03-29T03:57:55;7.50;99.90
50570;DHT22;36525;49.398;7.614;2024-03-29T04:00:21;7.30;99.90
50570;DHT22;36525;49.398;7.614;2024-03-29T04:02:51;7.20;99.90
50570;DHT22;36525;49.398;7.614;2024-03-29T04:05:17;7.20;99.90
50570;DHT22;36525;49.398;7.614;2024-03-29T04:07:44;7.10;99.90
50570;DHT22;36525;49.398;7.614;2024-03-29T04:10:10;7.10;99.90
50570;DHT22;36525;49.398;7.614;2024-03-29T04:12:36;7.10;99.90
50570;DHT22;36525;49.398;7.614;2024-03-29T04:15:02;7.00;99.90
50570;DHT22;36525;49.398;7.614;2024-03-29T04:17:29;7.00;99.90
50570;DHT22;36525;49.398;7.614;2024-03-29T04:19:58;7.00;99.90
50570;DHT22;36525;49.398;7.614;2024-03-29T04:22:25;7.00;99.90
50570;DHT22;36525;49.398;7.614;2024-03-29T04:24:53;7.00;99.90
50570;DHT22;36525;49.398;7.614;2024-03-29T04:27:19;7.00;99.90
50570;DHT22;36525;49.398;7.614;2024-03-29T04:29:44;7.00;99.90
50570;DHT22;36525;49.398;7.614;2024-03-29T04:32:10;7.00;99.90
50570;DHT22;36525;49.398;7.614;2024-03-29T04:34:36;7.00;99.90
50570;DHT22;36525;49.398;7.614;2024-03-29T04:37:02;7.00;99.90
50570;DHT22;36525;49.398;7.614;2024-03-29T04:39:28;7.00;99.90
50570;DHT22;36525;49.398;7.614;2024-03-29T04:41:54;7.00;99.90
50570;DHT22;36525;49.398;7.614;2024-03-29T04:44:24;6.90;99.90
50570;DHT22;36525;49.398;7.614;2024-03-29T04:46:51;7.00;99.90
50570;DHT22;36525;49.398;7.614;2024-03-29T04:49:20;7.00;99.90
50570;DHT22;36525;49.398;7.614;2024-03-29T04:51:56;7.00;99.90
50570;DHT22;36525;49.398;7.614;2024-03-29T04:54:23;6.90;99.90
50570;DHT22;36525;49.398;7.614;2024-03-29T04:56:48;7.00;99.90
50570;DHT22;36525;49.398;7.614;2024-03-29T04:59:15;7.00;99.90
50570;DHT22;36525;49.398;7.614;2024-03-29T05:01:43;7.00;99.90
50570;DHT22;36525;49.398;7.614;2024-03-29T05:04:18;7.00;99.90
50570;DHT22;36525;49.398;7.614;2024-03-29T05:06:53;7.00;99.90
50570;DHT22;36525;49.398;7.614;2024-03-29T05:09:20;7.00;99.90
50570;DHT22;36525;49.398;7.614;2024-03-29T05:11:46;7.00;99.90
50570;DHT22;36525;49.398;7.614;2024-03-29T05:14:13;7.00;99.90
50570;DHT22;36525;49.398;7.614;2024-03-29T05:16:44;7.00;99.90
50570;DHT22;36525;49.398;7.614;2024-03-29T05:19:11;7.00;99.90
50570;DHT22;36525;49.398;7.614;2024-03-29T05:21:38;7.10;99.90
50570;DHT22;36525;49.398;7.614;2024-03-29T05:24:04;7.10;99.90
50570;DHT22;36525;49.398;7.614;2024-03-29T05:26:31;7.10;99.90
50570;DHT22;36525;49.398;7.614;2024-03-29T05:28:57;7.10;99.90
50570;DHT22;36525;49.398;7.614;2024-03-29T05:31:24;7.10;99.90
50570;DHT22;36525;49.398;7.614;2024-03-29T05:33:50;7.10;99.90
50570;DHT22;36525;49.398;7.614;2024-03-29T05:36:16;7.10;99.90
50570;DHT22;36525;49.398;7.614;2024-03-29T05:38:42;7.00;99.90
50570;DHT22;36525;49.398;7.614;2024-03-29T05:41:09;7.00;99.90
50570;DHT22;36525;49.398;7.614;2024-03-29T05:43:35;6.90;99.90
50570;DHT22;36525;49.398;7.614;2024-03-29T05:46:01;6.90;99.90
50570;DHT22;36525;49.398;7.614;2024-03-29T05:48:28;6.90;99.90
50570;DHT22;36525;49.398;7.614;2024-03-29T05:50:54;6.90;99.90
50570;DHT22;36525;49.398;7.614;2024-03-29T05:53:20;6.90;99.90
50570;DHT22;36525;49.398;7.614;2024-03-29T05:55:46;6.90;99.90
50570;DHT22;36525;49.398;7.614;2024-03-29T05:58:12;6.90;99.90
50570;DHT22;36525;49.398;7.614;2024-03-29T06:00:42;6.90;99.90
50570;DHT22;36525;49.398;7.614;2024-03-29T06:03:09;7.00;99.90
50570;DHT22;36525;49.398;7.614;2024-03-29T06:05:35;7.00;99.90
50570;DHT22;36525;49.398;7.614;2024-03-29T06:08:01;7.00;99.90
50570;DHT22;36525;49.398;7.614;2024-03-29T06:10:26;7.10;99.90
50570;DHT22;36525;49.398;7.614;2024-03-29T06:12:52;7.10;99.90
50570;DHT22;36525;49.398;7.614;2024-03-29T06:15:19;7.10;99.90
50570;DHT22;36525;49.398;7.614;2024-03-29T06:18:03;7.10;99.90
50570;DHT22;36525;49.398;7.614;2024-03-29T06:20:30;7.10;99.90
50570;DHT22;36525;49.398;7.614;2024-03-29T06:22:56;7.10;99.90
50570;DHT22;36525;49.398;7.614;2024-03-29T06:25:21;7.10;99.90
50570;DHT22;36525;49.398;7.614;2024-03-29T06:27:47;7.10;99.90
50570;DHT22;36525;49.398;7.614;2024-03-29T06:30:13;7.10;99.90
50570;DHT22;36525;49.398;7.614;2024-03-29T06:32:41;7.10;99.90
50570;DHT22;36525;49.398;7.614;2024-03-29T06:35:08;7.10;99.90
50570;DHT22;36525;49.398;7.614;2024-03-29T06:37:34;7.10;99.90
50570;DHT22;36525;49.398;7.614;2024-03-29T06:40:00;7.10;99.90
50570;DHT22;36525;49.398;7.614;2024-03-29T06:42:26;7.10;99.90
50570;DHT22;36525;49.398;7.614;2024-03-29T06:44:52;7.10;99.90
50570;DHT22;36525;49.398;7.614;2024-03-29T06:47:20;7.10;99.90
50570;DHT22;36525;49.398;7.614;2024-03-29T06:49:46;7.20;99.90
50570;DHT22;36525;49.398;7.614;2024-03-29T06:52:12;7.20;99.90
50570;DHT22;36525;49.398;7.614;2024-03-29T06:54:38;7.20;99.90
50570;DHT22;36525;49.398;7.614;2024-03-29T06:57:04;7.20;99.90
50570;DHT22;36525;49.398;7.614;2024-03-29T06:59:29;7.30;99.90
50570;DHT22;36525;49.398;7.614;2024-03-29T07:01:55;7.30;99.90
50570;DHT22;36525;49.398;7.614;2024-03-29T07:04:22;7.30;99.90
50570;DHT22;36525;49.398;7.614;2024-03-29T07:06:49;7.40;99.90
50570;DHT22;36525;49.398;7.614;2024-03-29T07:09:19;7.40;99.90
50570;DHT22;36525;49.398;7.614;2024-03-29T07:11:46;7.50;99.90
50570;DHT22;36525;49.398;7.614;2024-03-29T07:14:13;7.50;99.90
50570;DHT22;36525;49.398;7.614;2024-03-29T07:16:42;7.50;99.90
50570;DHT22;36525;49.398;7.614;2024-03-29T07:19:09;7.50;99.90
50570;DHT22;36525;49.398;7.614;2024-03-29T07:21:38;7.50;99.90
50570;DHT22;36525;49.398;7.614;2024-03-29T07:24:05;7.50;99.90
50570;DHT22;36525;49.398;7.614;2024-03-29T07:26:32;7.50;99.90
50570;DHT22;36525;49.398;7.614;2024-03-29T07:28:58;7.60;99.90
50570;DHT22;36525;49.398;7.614;2024-03-29T07:31:24;7.50;99.90
50570;DHT22;36525;49.398;7.614;2024-03-29T07:33:49;7.60;99.90
50570;DHT22;36525;49.398;7.614;2024-03-29T07:36:15;7.70;99.90
50570;DHT22;36525;49.398;7.614;2024-03-29T07:38:42;7.70;99.90
50570;DHT22;36525;49.398;7.614;2024-03-29T07:41:11;7.80;99.90
50570;DHT22;36525;49.398;7.614;2024-03-29T07:43:39;7.80;99.90
50570;DHT22;36525;49.398;7.614;2024-03-29T07:46:06;7.90;99.90
50570;DHT22;36525;49.398;7.614;2024-03-29T07:48:35;7.90;99.90
50570;DHT22;36525;49.398;7.614;2024-03-29T07:51:01;7.90;99.90
50570;DHT22;36525;49.398;7.614;2024-03-29T07:53:27;7.90;99.90
50570;DHT22;36525;49.398;7.614;2024-03-29T07:55:53;8.00;99.90
50570;DHT22;36525;49.398;7.614;2024-03-29T07:58:20;8.00;99.90
50570;DHT22;36525;49.398;7.614;2024-03-29T08:00:46;8.10;99.90
50570;DHT22;36525;49.398;7.614;2024-03-29T08:03:12;8.00;99.90
50570;DHT22;36525;49.398;7.614;2024-03-29T08:05:37;8.10;99.90
50570;DHT22;36525;49.398;7.614;2024-03-29T08:08:03;8.00;99.90
50570;DHT22;36525;49.398;7.614;2024-03-29T08:10:30;8.10;99.90
50570;DHT22;36525;49.398;7.614;2024-03-29T08:12:56;8.10;99.90
50570;DHT22;36525;49.398;7.614;2024-03-29T08:15:22;8.10;99.90
50570;DHT22;36525;49.398;7.614;2024-03-29T08:17:48;8.20;99.90
50570;DHT22;36525;49.398;7.614;2024-03-29T08:20:14;8.30;99.90
50570;DHT22;36525;49.398;7.614;2024-03-29T08:22:40;8.30;99.90
50570;DHT22;36525;49.398;7.614;2024-03-29T08:25:06;8.40;99.90
50570;DHT22;36525;49.398;7.614;2024-03-29T08:27:32;8.40;99.90
50570;DHT22;36525;49.398;7.614;2024-03-29T08:29:57;8.40;99.90
50570;DHT22;36525;49.398;7.614;2024-03-29T08:32:23;8.50;99.90
50570;DHT22;36525;49.398;7.614;2024-03-29T08:34:49;8.60;99.90
50570;DHT22;36525;49.398;7.614;2024-03-29T08:37:17;8.60;99.90
50570;DHT22;36525;49.398;7.614;2024-03-29T08:39:43;8.70;99.90
50570;DHT22;36525;49.398;7.614;2024-03-29T08:42:09;8.70;99.90
50570;DHT22;36525;49.398;7.614;2024-03-29T08:44:37;8.70;99.90
50570;DHT22;36525;49.398;7.614;2024-03-29T08:47:05;8.80;99.90
50570;DHT22;36525;49.398;7.614;2024-03-29T08:49:31;8.90;99.90
50570;DHT22;36525;49.398;7.614;2024-03-29T08:51:57;8.90;99.90
50570;DHT22;36525;49.398;7.614;2024-03-29T08:54:24;8.90;99.90
50570;DHT22;36525;49.398;7.614;2024-03-29T08:56:51;8.90;99.90
50570;DHT22;36525;49.398;7.614;2024-03-29T08:59:16;9.00;99.90
50570;DHT22;36525;49.398;7.614;2024-03-29T09:01:47;9.10;99.90
50570;DHT22;36525;49.398;7.614;2024-03-29T09:04:16;9.30;99.90
50570;DHT22;36525;49.398;7.614;2024-03-29T09:06:42;9.40;99.90
50570;DHT22;36525;49.398;7.614;2024-03-29T09:09:08;9.40;99.90
50570;DHT22;36525;49.398;7.614;2024-03-29T09:11:35;9.40;99.90
50570;DHT22;36525;49.398;7.614;2024-03-29T09:14:02;9.50;99.90
50570;DHT22;36525;49.398;7.614;2024-03-29T09:16:29;9.50;99.90
50570;DHT22;36525;49.398;7.614;2024-03-29T09:18:55;9.50;99.90
50570;DHT22;36525;49.398;7.614;2024-03-29T09:21:21;9.50;99.90
50570;DHT22;36525;49.398;7.614;2024-03-29T09:23:47;9.50;99.90
50570;DHT22;36525;49.398;7.614;2024-03-29T09:26:14;9.60;99.90
50570;DHT22;36525;49.398;7.614;2024-03-29T09:28:41;9.60;99.90
50570;DHT22;36525;49.398;7.614;2024-03-29T09:31:06;9.60;99.90
50570;DHT22;36525;49.398;7.614;2024-03-29T09:33:32;9.60;99.90
50570;DHT22;36525;49.398;7.614;2024-03-29T09:35:58;9.60;99.90
50570;DHT22;36525;49.398;7.614;2024-03-29T09:38:25;9.60;99.90
50570;DHT22;36525;49.398;7.614;2024-03-29T09:40:59;9.70;99.90
50570;DHT22;36525;49.398;7.614;2024-03-29T09:43:29;9.70;99.90
50570;DHT22;36525;49.398;7.614;2024-03-29T09:45:56;9.80;99.90
50570;DHT22;36525;49.398;7.614;2024-03-29T09:48:22;9.90;99.90
50570;DHT22;36525;49.398;7.614;2024-03-29T09:50:48;9.90;99.90
50570;DHT22;36525;49.398;7.614;2024-03-29T09:53:15;10.00;99.90
50570;DHT22;36525;49.398;7.614;2024-03-29T09:55:42;10.00;99.90
50570;DHT22;36525;49.398;7.614;2024-03-29T09:58:08;10.00;99.90
50570;DHT22;36525;49.398;7.614;2024-03-29T10:00:33;10.10;99.90
50570;DHT22;36525;49.398;7.614;2024-03-29T10:02:59;10.20;99.90
50570;DHT22;36525;49.398;7.614;2024-03-29T10:05:26;10.40;99.90
50570;DHT22;36525;49.398;7.614;2024-03-29T10:07:53;10.60;99.90
50570;DHT22;36525;49.398;7.614;2024-03-29T10:10:19;10.80;99.90
50570;DHT22;36525;49.398;7.614;2024-03-29T10:12:45;10.80;99.90
50570;DHT22;36525;49.398;7.614;2024-03-29T10:15:11;10.80;99.90
50570;DHT22;36525;49.398;7.614;2024-03-29T10:17:47;10.80;99.90
50570;DHT22;36525;49.398;7.614;2024-03-29T10:20:16;10.90;99.90
50570;DHT22;36525;49.398;7.614;2024-03-29T10:22:44;11.00;99.90
50570;DHT22;36525;49.398;7.614;2024-03-29T10:25:10;11.10;99.90
50570;DHT22;36525;49.398;7.614;2024-03-29T10:27:37;11.30;99.90
50570;DHT22;36525;49.398;7.614;2024-03-29T10:30:04;11.40;99.90
50570;DHT22;36525;49.398;7.614;2024-03-29T10:32:31;11.60;99.90
50570;DHT22;36525;49.398;7.614;2024-03-29T10:34:58;11.50;99.90
50570;DHT22;36525;49.398;7.614;2024-03-29T10:37:28;11.60;99.90
50570;DHT22;36525;49.398;7.614;2024-03-29T10:39:55;11.30;99.90
50570;DHT22;36525;49.398;7.614;2024-03-29T10:42:24;11.10;99.90
50570;DHT22;36525;49.398;7.614;2024-03-29T10:44:52;11.00;99.90
50570;DHT22;36525;49.398;7.614;2024-03-29T10:47:19;11.00;99.90
50570;DHT22;36525;49.398;7.614;2024-03-29T10:49:49;11.00;99.90
50570;DHT22;36525;49.398;7.614;2024-03-29T10:52:16;10.80;99.90
50570;DHT22;36525;49.398;7.614;2024-03-29T10:54:46;10.80;99.90
50570;DHT22;36525;49.398;7.614;2024-03-29T10:57:14;10.60;99.90
50570;DHT22;36525;49.398;7.614;2024-03-29T11:02:30;10.10;99.90
50570;DHT22;36525;49.398;7.614;2024-03-29T11:05:01;10.10;99.90
50570;DHT22;36525;49.398;7.614;2024-03-29T11:07:31;10.30;99.90
50570;DHT22;36525;49.398;7.614;2024-03-29T11:10:00;10.20;99.90
50570;DHT22;36525;49.398;7.614;2024-03-29T11:12:29;10.20;99.90
50570;DHT22;36525;49.398;7.614;2024-03-29T11:15:02;9.90;99.90
50570;DHT22;36525;49.398;7.614;2024-03-29T11:17:30;9.90;99.90
50570;DHT22;36525;49.398;7.614;2024-03-29T11:19:59;9.80;99.90
50570;DHT22;36525;49.398;7.614;2024-03-29T11:22:26;9.90;99.90
50570;DHT22;36525;49.398;7.614;2024-03-29T11:24:53;9.90;99.90
50570;DHT22;36525;49.398;7.614;2024-03-29T11:27:22;10.00;99.90
50570;DHT22;36525;49.398;7.614;2024-03-29T11:29:49;10.00;99.90
50570;DHT22;36525;49.398;7.614;2024-03-29T11:32:33;10.20;99.90
50570;DHT22;36525;49.398;7.614;2024-03-29T11:35:04;10.20;99.90
50570;DHT22;36525;49.398;7.614;2024-03-29T11:37:30;10.20;99.90
50570;DHT22;36525;49.398;7.614;2024-03-29T11:39:59;10.20;99.90
50570;DHT22;36525;49.398;7.614;2024-03-29T11:42:44;10.10;99.90
50570;DHT22;36525;49.398;7.614;2024-03-29T11:45:10;10.10;99.90
50570;DHT22;36525;49.398;7.614;2024-03-29T11:47:38;10.10;99.90
50570;DHT22;36525;49.398;7.614;2024-03-29T11:50:07;10.10;99.90
50570;DHT22;36525;49.398;7.614;2024-03-29T11:52:34;10.20;99.90
50570;DHT22;36525;49.398;7.614;2024-03-29T11:55:00;10.20;99.90
50570;DHT22;36525;49.398;7.614;2024-03-29T11:57:26;10.10;99.90
50570;DHT22;36525;49.398;7.614;2024-03-29T11:59:51;10.20;99.90
50570;DHT22;36525;49.398;7.614;2024-03-29T12:02:17;10.20;99.90
50570;DHT22;36525;49.398;7.614;2024-03-29T12:04:43;10.30;99.90
50570;DHT22;36525;49.398;7.614;2024-03-29T12:07:09;10.50;99.90
50570;DHT22;36525;49.398;7.614;2024-03-29T12:09:36;10.60;99.90
50570;DHT22;36525;49.398;7.614;2024-03-29T12:12:05;10.60;99.90
50570;DHT22;36525;49.398;7.614;2024-03-29T12:14:35;10.60;99.90
50570;DHT22;36525;49.398;7.614;2024-03-29T12:17:11;10.60;99.90
50570;DHT22;36525;49.398;7.614;2024-03-29T12:19:38;10.60;99.90
50570;DHT22;36525;49.398;7.614;2024-03-29T12:22:07;10.60;99.90
50570;DHT22;36525;49.398;7.614;2024-03-29T12:24:34;10.70;99.90
50570;DHT22;36525;49.398;7.614;2024-03-29T12:27:00;10.70;99.90
50570;DHT22;36525;49.398;7.614;2024-03-29T12:29:26;10.80;99.90
50570;DHT22;36525;49.398;7.614;2024-03-29T12:31:56;11.00;99.90
50570;DHT22;36525;49.398;7.614;2024-03-29T12:34:24;11.00;99.90
50570;DHT22;36525;49.398;7.614;2024-03-29T12:36:50;11.20;99.90
50570;DHT22;36525;49.398;7.614;2024-03-29T12:39:16;11.20;99.90
50570;DHT22;36525;49.398;7.614;2024-03-29T12:41:42;11.30;99.90
50570;DHT22;36525;49.398;7.614;2024-03-29T12:44:10;11.50;99.90
50570;DHT22;36525;49.398;7.614;2024-03-29T12:46:36;11.70;99.90
50570;DHT22;36525;49.398;7.614;2024-03-29T12:49:02;11.60;99.90
50570;DHT22;36525;49.398;7.614;2024-03-29T12:51:28;11.60;99.90
50570;DHT22;36525;49.398;7.614;2024-03-29T12:53:55;11.70;99.90
50570;DHT22;36525;49.398;7.614;2024-03-29T12:56:26;11.50;99.90
50570;DHT22;36525;49.398;7.614;2024-03-29T12:58:52;11.30;99.90
50570;DHT22;36525;49.398;7.614;2024-03-29T13:01:18;11.20;99.90
50570;DHT22;36525;49.398;7.614;2024-03-29T13:03:44;11.20;99.90
50570;DHT22;36525;49.398;7.614;2024-03-29T13:06:10;11.10;99.90
50570;DHT22;36525;49.398;7.614;2024-03-29T13:08:36;11.00;99.90
50570;DHT22;36525;49.398;7.614;2024-03-29T13:11:03;11.00;99.90
50570;DHT22;36525;49.398;7.614;2024-03-29T13:13:29;11.20;99.90
50570;DHT22;36525;49.398;7.614;2024-03-29T13:15:55;11.20;99.90
50570;DHT22;36525;49.398;7.614;2024-03-29T13:18:21;11.20;99.90
50570;DHT22;36525;49.398;7.614;2024-03-29T13:20:46;11.20;99.90
50570;DHT22;36525;49.398;7.614;2024-03-29T13:23:12;11.20;99.90
50570;DHT22;36525;49.398;7.614;2024-03-29T13:25:39;11.10;99.90
50570;DHT22;36525;49.398;7.614;2024-03-29T13:28:05;11.10;99.90
50570;DHT22;36525;49.398;7.614;2024-03-29T13:30:32;11.10;99.90
50570;DHT22;36525;49.398;7.614;2024-03-29T13:32:58;11.10;99.90
50570;DHT22;36525;49.398;7.614;2024-03-29T13:35:25;11.20;99.90
50570;DHT22;36525;49.398;7.614;2024-03-29T13:37:51;11.20;99.90
50570;DHT22;36525;49.398;7.614;2024-03-29T13:40:21;11.30;99.90
50570;DHT22;36525;49.398;7.614;2024-03-29T13:42:48;11.30;99.90
50570;DHT22;36525;49.398;7.614;2024-03-29T13:45:17;11.30;99.90
50570;DHT22;36525;49.398;7.614;2024-03-29T13:47:43;11.40;99.90
50570;DHT22;36525;49.398;7.614;2024-03-29T13:50:11;11.40;99.90
50570;DHT22;36525;49.398;7.614;2024-03-29T13:52:37;11.50;99.90
50570;DHT22;36525;49.398;7.614;2024-03-29T13:55:05;11.70;99.90
50570;DHT22;36525;49.398;7.614;2024-03-29T13:57:31;11.80;99.90
50570;DHT22;36525;49.398;7.614;2024-03-29T13:59:57;11.80;99.90
50570;DHT22;36525;49.398;7.614;2024-03-29T14:02:24;11.70;99.90
50570;DHT22;36525;49.398;7.614;2024-03-29T14:04:52;11.60;99.90
50570;DHT22;36525;49.398;7.614;2024-03-29T14:07:18;11.50;99.90
50570;DHT22;36525;49.398;7.614;2024-03-29T14:09:44;11.50;99.90
50570;DHT22;36525;49.398;7.614;2024-03-29T14:12:13;11.50;99.90
50570;DHT22;36525;49.398;7.614;2024-03-29T14:14:39;11.60;99.90
50570;DHT22;36525;49.398;7.614;2024-03-29T14:17:07;11.60;99.90
50570;DHT22;36525;49.398;7.614;2024-03-29T14:19:37;11.70;99.90
50570;DHT22;36525;49.398;7.614;2024-03-29T14:22:03;11.80;99.90
50570;DHT22;36525;49.398;7.614;2024-03-29T14:24:30;11.70;99.90
50570;DHT22;36525;49.398;7.614;2024-03-29T14:26:58;11.80;99.90
50570;DHT22;36525;49.398;7.614;2024-03-29T14:29:23;11.80;99.90
50570;DHT22;36525;49.398;7.614;2024-03-29T14:31:49;11.90;99.90
50570;DHT22;36525;49.398;7.614;2024-03-29T14:34:16;11.90;99.90
50570;DHT22;36525;49.398;7.614;2024-03-29T14:36:43;11.90;99.90
50570;DHT22;36525;49.398;7.614;2024-03-29T14:39:09;12.00;99.90
50570;DHT22;36525;49.398;7.614;2024-03-29T14:41:38;12.10;99.90
50570;DHT22;36525;49.398;7.614;2024-03-29T14:44:07;12.10;99.90
50570;DHT22;36525;49.398;7.614;2024-03-29T14:46:34;12.00;99.90
50570;DHT22;36525;49.398;7.614;2024-03-29T14:49:03;11.90;99.90
50570;DHT22;36525;49.398;7.614;2024-03-29T14:51:33;11.70;99.90
50570;DHT22;36525;49.398;7.614;2024-03-29T14:54:00;11.80;99.90
50570;DHT22;36525;49.398;7.614;2024-03-29T14:56:29;11.80;99.90
50570;DHT22;36525;49.398;7.614;2024-03-29T14:59:00;11.80;99.90
50570;DHT22;36525;49.398;7.614;2024-03-29T15:01:26;11.90;99.90
50570;DHT22;36525;49.398;7.614;2024-03-29T15:03:52;12.00;99.90
50570;DHT22;36525;49.398;7.614;2024-03-29T15:06:19;12.00;99.90
50570;DHT22;36525;49.398;7.614;2024-03-29T15:08:47;11.80;99.90
50570;DHT22;36525;49.398;7.614;2024-03-29T15:11:13;11.80;99.90
50570;DHT22;36525;49.398;7.614;2024-03-29T15:13:40;12.00;99.90
50570;DHT22;36525;49.398;7.614;2024-03-29T15:16:05;12.20;99.90
50570;DHT22;36525;49.398;7.614;2024-03-29T15:18:31;12.40;99.90
50570;DHT22;36525;49.398;7.614;2024-03-29T15:20:58;12.50;99.90
50570;DHT22;36525;49.398;7.614;2024-03-29T15:23:25;12.50;99.90
50570;DHT22;36525;49.398;7.614;2024-03-29T15:25:53;12.30;99.90
50570;DHT22;36525;49.398;7.614;2024-03-29T15:28:20;12.20;99.90
50570;DHT22;36525;49.398;7.614;2024-03-29T15:31:15;12.10;99.90
50570;DHT22;36525;49.398;7.614;2024-03-29T15:33:50;12.10;99.90
50570;DHT22;36525;49.398;7.614;2024-03-29T15:36:16;11.80;99.90
50570;DHT22;36525;49.398;7.614;2024-03-29T15:38:43;11.60;99.90
50570;DHT22;36525;49.398;7.614;2024-03-29T15:41:10;11.90;99.90